sensor_id;sensor_type;location;lat;lon;timestamp;pressure;altitude;pressure_sealevel;temperature;humidity
82148;BME280;71718;50.480;12.110;2024-01-06T00:01:53;96463.59;;;0.32;81.23
82148;BME280;71718;50.480;12.110;2024-01-06T00:04:19;96466.47;;;0.29;81.52
82148;BME280;71718;50.480;12.110;2024-01-06T00:06:45;96464.69;;;0.30;81.47
82148;BME280;71718;50.480;12.110;2024-01-06T00:09:12;96459.59;;;0.30;81.66
82148;BME280;71718;50.480;12.110;2024-01-06T00:11:38;96457.38;;;0.27;81.17
82148;BME280;71718;50.480;12.110;2024-01-06T00:14:04;96467.75;;;0.25;81.26
82148;BME280;71718;50.480;12.110;2024-01-06T00:16:31;96471.47;;;0.23;81.39
82148;BME280;71718;50.480;12.110;2024-01-06T00:18:57;96478.50;;;0.21;81.69
82148;BME280;71718;50.480;12.110;2024-01-06T00:21:24;96468.44;;;0.19;81.47
82148;BME280;71718;50.480;12.110;2024-01-06T00:23:50;96460.63;;;0.21;81.58
82148;BME280;71718;50.480;12.110;2024-01-06T00:26:16;96462.53;;;0.19;81.31
82148;BME280;71718;50.480;12.110;2024-01-06T00:28:43;96458.56;;;0.16;79.85
82148;BME280;71718;50.480;12.110;2024-01-06T00:31:09;96468.34;;;0.13;79.86
82148;BME280;71718;50.480;12.110;2024-01-06T00:33:36;96477.47;;;0.07;80.69
82148;BME280;71718;50.480;12.110;2024-01-06T00:36:02;96471.88;;;0.04;81.58
82148;BME280;71718;50.480;12.110;2024-01-06T00:38:29;96476.03;;;0.05;81.91
82148;BME280;71718;50.480;12.110;2024-01-06T00:40:55;96474.28;;;0.05;81.95
82148;BME280;71718;50.480;12.110;2024-01-06T00:43:22;96480.34;;;0.04;81.83
82148;BME280;71718;50.480;12.110;2024-01-06T00:45:48;96476.03;;;0.05;81.83
82148;BME280;71718;50.480;12.110;2024-01-06T00:48:14;96476.19;;;0.03;81.56
82148;BME280;71718;50.480;12.110;2024-01-06T00:50:41;96483.41;;;-0.00;81.83
82148;BME280;71718;50.480;12.110;2024-01-06T00:53:07;96473.19;;;-0.00;81.99
82148;BME280;71718;50.480;12.110;2024-01-06T00:55:34;96481.19;;;-0.03;82.00
82148;BME280;71718;50.480;12.110;2024-01-06T00:58:00;96476.88;;;-0.03;81.52
82148;BME280;71718;50.480;12.110;2024-01-06T01:00:27;96483.44;;;-0.09;81.74
82148;BME280;71718;50.480;12.110;2024-01-06T01:02:53;96489.50;;;-0.10;81.21
82148;BME280;71718;50.480;12.110;2024-01-06T01:05:19;96486.97;;;-0.18;81.47
82148;BME280;71718;50.480;12.110;2024-01-06T01:07:46;96499.13;;;-0.20;81.49
82148;BME280;71718;50.480;12.110;2024-01-06T01:10:12;96501.69;;;-0.20;81.97
82148;BME280;71718;50.480;12.110;2024-01-06T01:12:38;96507.75;;;-0.21;81.50
82148;BME280;71718;50.480;12.110;2024-01-06T01:15:05;96511.44;;;-0.23;81.64
82148;BME280;71718;50.480;12.110;2024-01-06T01:17:32;96517.50;;;-0.24;81.57
82148;BME280;71718;50.480;12.110;2024-01-06T01:19:58;96512.53;;;-0.26;81.54
82148;BME280;71718;50.480;12.110;2024-01-06T01:22:25;96517.66;;;-0.26;81.59
82148;BME280;71718;50.480;12.110;2024-01-06T01:24:51;96513.50;;;-0.27;81.54
82148;BME280;71718;50.480;12.110;2024-01-06T01:27:17;96507.78;;;-0.29;81.42
82148;BME280;71718;50.480;12.110;2024-01-06T01:29:44;96513.84;;;-0.30;81.39
82148;BME280;71718;50.480;12.110;2024-01-06T01:32:10;96514.16;;;-0.33;81.42
82148;BME280;71718;50.480;12.110;2024-01-06T01:34:37;96517.69;;;-0.34;81.72
82148;BME280;71718;50.480;12.110;2024-01-06T01:37:03;96521.19;;;-0.35;81.75
82148;BME280;71718;50.480;12.110;2024-01-06T01:39:30;96519.59;;;-0.36;81.78
82148;BME280;71718;50.480;12.110;2024-01-06T01:41:56;96526.59;;;-0.38;81.46
82148;BME280;71718;50.480;12.110;2024-01-06T01:44:22;96522.78;;;-0.42;81.17
82148;BME280;71718;50.480;12.110;2024-01-06T01:46:49;96519.63;;;-0.44;81.34
82148;BME280;71718;50.480;12.110;2024-01-06T01:49:15;96519.00;;;-0.46;82.11
82148;BME280;71718;50.480;12.110;2024-01-06T01:51:42;96517.25;;;-0.45;81.91
82148;BME280;71718;50.480;12.110;2024-01-06T01:54:08;96512.28;;;-0.47;81.69
82148;BME280;71718;50.480;12.110;2024-01-06T01:56:36;96518.34;;;-0.48;81.48
82148;BME280;71718;50.480;12.110;2024-01-06T01:59:06;96515.97;;;-0.50;81.02
82148;BME280;71718;50.480;12.110;2024-01-06T02:01:35;96513.59;;;-0.51;81.45
82148;BME280;71718;50.480;12.110;2024-01-06T02:04:02;96522.19;;;-0.52;81.58
82148;BME280;71718;50.480;12.110;2024-01-06T02:06:28;96519.78;;;-0.54;81.98
82148;BME280;71718;50.480;12.110;2024-01-06T02:08:55;96525.88;;;-0.55;81.57
82148;BME280;71718;50.480;12.110;2024-01-06T02:11:21;96520.13;;;-0.57;81.75
82148;BME280;71718;50.480;12.110;2024-01-06T02:13:48;96516.78;;;-0.57;81.60
82148;BME280;71718;50.480;12.110;2024-01-06T02:16:14;96520.47;;;-0.60;80.98
82148;BME280;71718;50.480;12.110;2024-01-06T02:18:40;96519.84;;;-0.62;81.44
82148;BME280;71718;50.480;12.110;2024-01-06T02:21:07;96519.97;;;-0.63;81.99
82148;BME280;71718;50.480;12.110;2024-01-06T02:23:35;96521.13;;;-0.66;81.81
82148;BME280;71718;50.480;12.110;2024-01-06T02:26:02;96526.22;;;-0.66;81.78
82148;BME280;71718;50.480;12.110;2024-01-06T02:28:28;96532.91;;;-0.65;81.80
82148;BME280;71718;50.480;12.110;2024-01-06T02:30:55;96528.44;;;-0.63;80.93
82148;BME280;71718;50.480;12.110;2024-01-06T02:33:21;96533.88;;;-0.66;81.42
82148;BME280;71718;50.480;12.110;2024-01-06T02:35:48;96528.13;;;-0.68;81.77
82148;BME280;71718;50.480;12.110;2024-01-06T02:38:14;96525.72;;;-0.69;81.87
82148;BME280;71718;50.480;12.110;2024-01-06T02:40:41;96530.22;;;-0.71;81.45
82148;BME280;71718;50.480;12.110;2024-01-06T02:43:07;96528.28;;;-0.69;81.48
82148;BME280;71718;50.480;12.110;2024-01-06T02:45:33;96525.13;;;-0.71;81.48
82148;BME280;71718;50.480;12.110;2024-01-06T02:48:00;96538.81;;;-0.72;81.77
82148;BME280;71718;50.480;12.110;2024-01-06T02:50:26;96533.88;;;-0.74;81.52
82148;BME280;71718;50.480;12.110;2024-01-06T02:52:53;96525.59;;;-0.76;81.39
82148;BME280;71718;50.480;12.110;2024-01-06T02:55:19;96532.59;;;-0.78;81.57
82148;BME280;71718;50.480;12.110;2024-01-06T02:57:46;96532.94;;;-0.81;81.69
82148;BME280;71718;50.480;12.110;2024-01-06T03:00:13;96537.38;;;-0.83;81.85
82148;BME280;71718;50.480;12.110;2024-01-06T03:02:39;96539.94;;;-0.83;82.03
82148;BME280;71718;50.480;12.110;2024-01-06T03:05:06;96538.69;;;-0.87;81.83
82148;BME280;71718;50.480;12.110;2024-01-06T03:07:32;96538.03;;;-0.89;81.72
82148;BME280;71718;50.480;12.110;2024-01-06T03:09:58;96544.09;;;-0.90;81.81
82148;BME280;71718;50.480;12.110;2024-01-06T03:12:25;96550.31;;;-0.93;81.38
82148;BME280;71718;50.480;12.110;2024-01-06T03:14:51;96551.41;;;-0.95;81.79
82148;BME280;71718;50.480;12.110;2024-01-06T03:17:18;96555.88;;;-0.97;81.65
82148;BME280;71718;50.480;12.110;2024-01-06T03:19:44;96550.94;;;-0.99;81.42
82148;BME280;71718;50.480;12.110;2024-01-06T03:22:11;96557.94;;;-1.01;82.05
82148;BME280;71718;50.480;12.110;2024-01-06T03:24:37;96558.59;;;-0.99;81.86
82148;BME280;71718;50.480;12.110;2024-01-06T03:27:03;96558.25;;;-0.96;81.75
82148;BME280;71718;50.480;12.110;2024-01-06T03:29:30;96560.03;;;-0.96;81.79
82148;BME280;71718;50.480;12.110;2024-01-06T03:31:56;96559.69;;;-0.93;81.75
82148;BME280;71718;50.480;12.110;2024-01-06T03:34:23;96558.75;;;-0.92;81.69
82148;BME280;71718;50.480;12.110;2024-01-06T03:36:49;96556.06;;;-0.90;81.35
82148;BME280;71718;50.480;12.110;2024-01-06T03:39:15;96559.06;;;-0.87;81.30
82148;BME280;71718;50.480;12.110;2024-01-06T03:41:42;96561.28;;;-0.84;81.58
82148;BME280;71718;50.480;12.110;2024-01-06T03:44:08;96564.94;;;-0.78;81.47
82148;BME280;71718;50.480;12.110;2024-01-06T03:46:35;96565.72;;;-0.70;81.11
82148;BME280;71718;50.480;12.110;2024-01-06T03:49:01;96565.56;;;-0.60;81.21
82148;BME280;71718;50.480;12.110;2024-01-06T03:51:28;96568.75;;;-0.50;80.64
82148;BME280;71718;50.480;12.110;2024-01-06T03:53:55;96559.00;;;-0.46;79.82
82148;BME280;71718;50.480;12.110;2024-01-06T03:56:21;96567.75;;;-0.41;79.90
82148;BME280;71718;50.480;12.110;2024-01-06T03:58:48;96570.47;;;-0.34;79.74
82148;BME280;71718;50.480;12.110;2024-01-06T04:01:14;96566.47;;;-0.29;78.89
82148;BME280;71718;50.480;12.110;2024-01-06T04:03:40;96568.31;;;-0.23;78.83
82148;BME280;71718;50.480;12.110;2024-01-06T04:06:07;96562.28;;;-0.22;78.87
82148;BME280;71718;50.480;12.110;2024-01-06T04:08:35;96556.66;;;-0.17;78.88
82148;BME280;71718;50.480;12.110;2024-01-06T04:11:02;96556.97;;;-0.12;78.69
82148;BME280;71718;50.480;12.110;2024-01-06T04:13:28;96562.06;;;-0.04;78.07
82148;BME280;71718;50.480;12.110;2024-01-06T04:15:55;96560.97;;;-0.10;77.83
82148;BME280;71718;50.480;12.110;2024-01-06T04:18:21;96559.72;;;-0.14;78.16
82148;BME280;71718;50.480;12.110;2024-01-06T04:20:48;96568.94;;;-0.13;78.28
82148;BME280;71718;50.480;12.110;2024-01-06T04:23:14;96564.81;;;-0.14;77.97
82148;BME280;71718;50.480;12.110;2024-01-06T04:25:40;96569.22;;;-0.08;77.87
82148;BME280;71718;50.480;12.110;2024-01-06T04:28:07;96569.22;;;-0.08;77.75
82148;BME280;71718;50.480;12.110;2024-01-06T04:30:33;96561.28;;;-0.13;77.83
82148;BME280;71718;50.480;12.110;2024-01-06T04:33:00;96570.03;;;-0.07;78.54
82148;BME280;71718;50.480;12.110;2024-01-06T04:35:26;96563.16;;;-0.07;77.82
82148;BME280;71718;50.480;12.110;2024-01-06T04:37:52;96566.97;;;0.06;78.13
82148;BME280;71718;50.480;12.110;2024-01-06T04:40:19;96570.16;;;-0.00;77.39
82148;BME280;71718;50.480;12.110;2024-01-06T04:42:45;96579.28;;;0.02;77.70
82148;BME280;71718;50.480;12.110;2024-01-06T04:45:12;96577.31;;;0.04;77.40
82148;BME280;71718;50.480;12.110;2024-01-06T04:47:38;96575.25;;;0.08;77.78
82148;BME280;71718;50.480;12.110;2024-01-06T04:50:05;96569.22;;;0.01;77.83
82148;BME280;71718;50.480;12.110;2024-01-06T04:52:31;96573.47;;;0.08;77.19
82148;BME280;71718;50.480;12.110;2024-01-06T04:54:58;96577.63;;;0.09;77.35
82148;BME280;71718;50.480;12.110;2024-01-06T04:57:24;96573.63;;;0.15;77.29
82148;BME280;71718;50.480;12.110;2024-01-06T04:59:51;96576.47;;;0.20;77.37
82148;BME280;71718;50.480;12.110;2024-01-06T05:02:17;96583.31;;;0.27;76.66
82148;BME280;71718;50.480;12.110;2024-01-06T05:04:43;96587.25;;;0.30;77.03
82148;BME280;71718;50.480;12.110;2024-01-06T05:07:10;96592.38;;;0.30;76.51
82148;BME280;71718;50.480;12.110;2024-01-06T05:09:36;96596.69;;;0.29;76.42
82148;BME280;71718;50.480;12.110;2024-01-06T05:12:03;96593.00;;;0.32;77.35
82148;BME280;71718;50.480;12.110;2024-01-06T05:14:29;96588.22;;;0.29;77.02
82148;BME280;71718;50.480;12.110;2024-01-06T05:16:56;96605.03;;;0.23;77.68
82148;BME280;71718;50.480;12.110;2024-01-06T05:19:22;96598.13;;;0.24;76.77
82148;BME280;71718;50.480;12.110;2024-01-06T05:21:49;96598.84;;;0.18;77.02
82148;BME280;71718;50.480;12.110;2024-01-06T05:24:15;96587.81;;;0.17;77.15
82148;BME280;71718;50.480;12.110;2024-01-06T05:26:42;96599.63;;;0.18;76.58
82148;BME280;71718;50.480;12.110;2024-01-06T05:29:08;96598.19;;;0.16;76.86
82148;BME280;71718;50.480;12.110;2024-01-06T05:31:35;96597.22;;;0.17;77.17
82148;BME280;71718;50.480;12.110;2024-01-06T05:34:01;96594.03;;;0.15;76.84
82148;BME280;71718;50.480;12.110;2024-01-06T05:36:28;96598.69;;;0.11;76.65
82148;BME280;71718;50.480;12.110;2024-01-06T05:38:54;96596.00;;;0.05;76.66
82148;BME280;71718;50.480;12.110;2024-01-06T05:41:21;96599.69;;;0.02;77.15
82148;BME280;71718;50.480;12.110;2024-01-06T05:43:47;96597.94;;;-0.06;76.86
82148;BME280;71718;50.480;12.110;2024-01-06T05:46:21;96606.09;;;-0.10;77.07
82148;BME280;71718;50.480;12.110;2024-01-06T05:48:48;96606.75;;;-0.16;77.38
82148;BME280;71718;50.480;12.110;2024-01-06T05:51:14;96605.50;;;-0.20;77.69
82148;BME280;71718;50.480;12.110;2024-01-06T05:53:41;96603.59;;;-0.26;77.64
82148;BME280;71718;50.480;12.110;2024-01-06T05:56:07;96608.84;;;-0.28;77.79
82148;BME280;71718;50.480;12.110;2024-01-06T05:58:34;96611.88;;;-0.32;77.93
82148;BME280;71718;50.480;12.110;2024-01-06T06:01:00;96617.47;;;-0.37;78.15
82148;BME280;71718;50.480;12.110;2024-01-06T06:03:27;96623.53;;;-0.38;78.44
82148;BME280;71718;50.480;12.110;2024-01-06T06:05:53;96622.91;;;-0.40;78.60
82148;BME280;71718;50.480;12.110;2024-01-06T06:08:20;96623.88;;;-0.41;78.66
82148;BME280;71718;50.480;12.110;2024-01-06T06:10:46;96621.31;;;-0.41;78.77
82148;BME280;71718;50.480;12.110;2024-01-06T06:13:12;96627.38;;;-0.42;78.66
82148;BME280;71718;50.480;12.110;2024-01-06T06:15:39;96642.81;;;-0.43;78.54
82148;BME280;71718;50.480;12.110;2024-01-06T06:18:05;96645.38;;;-0.43;78.58
82148;BME280;71718;50.480;12.110;2024-01-06T06:20:32;96633.75;;;-0.46;78.93
82148;BME280;71718;50.480;12.110;2024-01-06T06:22:58;96643.16;;;-0.46;78.68
82148;BME280;71718;50.480;12.110;2024-01-06T06:25:25;96649.38;;;-0.49;78.88
82148;BME280;71718;50.480;12.110;2024-01-06T06:27:51;96647.94;;;-0.52;79.08
82148;BME280;71718;50.480;12.110;2024-01-06T06:30:18;96649.84;;;-0.54;79.27
82148;BME280;71718;50.480;12.110;2024-01-06T06:32:44;96664.53;;;-0.56;79.18
82148;BME280;71718;50.480;12.110;2024-01-06T06:35:11;96667.22;;;-0.57;79.05
82148;BME280;71718;50.480;12.110;2024-01-06T06:37:37;96667.72;;;-0.62;79.24
82148;BME280;71718;50.480;12.110;2024-01-06T06:40:04;96675.84;;;-0.66;78.94
82148;BME280;71718;50.480;12.110;2024-01-06T06:42:30;96675.53;;;-0.71;79.11
82148;BME280;71718;50.480;12.110;2024-01-06T06:44:57;96681.91;;;-0.75;78.98
82148;BME280;71718;50.480;12.110;2024-01-06T06:47:23;96685.22;;;-0.83;79.23
82148;BME280;71718;50.480;12.110;2024-01-06T06:49:50;96683.16;;;-0.87;79.44
82148;BME280;71718;50.480;12.110;2024-01-06T06:52:16;96687.91;;;-0.93;79.43
82148;BME280;71718;50.480;12.110;2024-01-06T06:54:42;96686.78;;;-0.98;79.34
82148;BME280;71718;50.480;12.110;2024-01-06T06:57:09;96693.31;;;-1.04;79.67
82148;BME280;71718;50.480;12.110;2024-01-06T06:59:35;96695.53;;;-1.09;79.71
82148;BME280;71718;50.480;12.110;2024-01-06T07:02:02;96702.03;;;-1.14;79.89
82148;BME280;71718;50.480;12.110;2024-01-06T07:04:28;96714.13;;;-1.16;80.24
82148;BME280;71718;50.480;12.110;2024-01-06T07:06:55;96710.16;;;-1.19;80.34
82148;BME280;71718;50.480;12.110;2024-01-06T07:09:21;96712.22;;;-1.22;80.31
82148;BME280;71718;50.480;12.110;2024-01-06T07:11:49;96720.34;;;-1.27;80.29
82148;BME280;71718;50.480;12.110;2024-01-06T07:14:15;96728.13;;;-1.28;80.63
82148;BME280;71718;50.480;12.110;2024-01-06T07:16:41;96729.22;;;-1.31;80.98
82148;BME280;71718;50.480;12.110;2024-01-06T07:19:08;96736.72;;;-1.29;81.19
82148;BME280;71718;50.480;12.110;2024-01-06T07:21:34;96727.47;;;-1.30;81.37
82148;BME280;71718;50.480;12.110;2024-01-06T07:24:01;96728.59;;;-1.33;80.97
82148;BME280;71718;50.480;12.110;2024-01-06T07:26:27;96726.31;;;-1.36;80.63
82148;BME280;71718;50.480;12.110;2024-01-06T07:28:53;96733.34;;;-1.38;80.32
82148;BME280;71718;50.480;12.110;2024-01-06T07:31:20;96734.44;;;-1.41;80.48
82148;BME280;71718;50.480;12.110;2024-01-06T07:33:46;96736.69;;;-1.38;80.80
82148;BME280;71718;50.480;12.110;2024-01-06T07:36:13;96731.88;;;-1.41;80.42
82148;BME280;71718;50.480;12.110;2024-01-06T07:38:39;96743.81;;;-1.41;80.47
82148;BME280;71718;50.480;12.110;2024-01-06T07:41:06;96742.38;;;-1.44;80.78
82148;BME280;71718;50.480;12.110;2024-01-06T07:43:33;96752.41;;;-1.42;80.58
82148;BME280;71718;50.480;12.110;2024-01-06T07:46:00;96756.41;;;-1.40;80.47
82148;BME280;71718;50.480;12.110;2024-01-06T07:48:26;96764.19;;;-1.41;80.75
82148;BME280;71718;50.480;12.110;2024-01-06T07:50:53;96759.75;;;-1.39;81.18
82148;BME280;71718;50.480;12.110;2024-01-06T07:53:19;96764.88;;;-1.31;81.28
82148;BME280;71718;50.480;12.110;2024-01-06T07:55:45;96771.09;;;-1.25;81.03
82148;BME280;71718;50.480;12.110;2024-01-06T07:58:12;96773.84;;;-1.19;80.71
82148;BME280;71718;50.480;12.110;2024-01-06T08:00:38;96772.44;;;-1.13;80.49
82148;BME280;71718;50.480;12.110;2024-01-06T08:03:05;96778.00;;;-1.10;80.26
82148;BME280;71718;50.480;12.110;2024-01-06T08:05:31;96783.75;;;-1.08;80.15
82148;BME280;71718;50.480;12.110;2024-01-06T08:07:58;96790.94;;;-1.03;79.84
82148;BME280;71718;50.480;12.110;2024-01-06T08:10:24;96787.59;;;-1.04;78.86
82148;BME280;71718;50.480;12.110;2024-01-06T08:12:50;96792.53;;;-1.02;79.20
82148;BME280;71718;50.480;12.110;2024-01-06T08:15:17;96796.38;;;-0.98;78.85
82148;BME280;71718;50.480;12.110;2024-01-06T08:17:44;96806.59;;;-0.90;78.67
82148;BME280;71718;50.480;12.110;2024-01-06T08:20:10;96804.88;;;-0.81;78.51
82148;BME280;71718;50.480;12.110;2024-01-06T08:22:37;96799.78;;;-0.73;78.00
82148;BME280;71718;50.480;12.110;2024-01-06T08:25:03;96795.53;;;-0.65;77.68
82148;BME280;71718;50.480;12.110;2024-01-06T08:27:30;96799.03;;;-0.58;77.29
82148;BME280;71718;50.480;12.110;2024-01-06T08:29:57;96798.06;;;-0.57;77.14
82148;BME280;71718;50.480;12.110;2024-01-06T08:32:23;96798.25;;;-0.50;77.00
82148;BME280;71718;50.480;12.110;2024-01-06T08:34:49;96806.22;;;-0.45;76.90
82148;BME280;71718;50.480;12.110;2024-01-06T08:37:16;96801.59;;;-0.41;76.58
82148;BME280;71718;50.480;12.110;2024-01-06T08:39:42;96805.63;;;-0.39;75.93
82148;BME280;71718;50.480;12.110;2024-01-06T08:42:09;96809.72;;;-0.38;76.14
82148;BME280;71718;50.480;12.110;2024-01-06T08:44:35;96813.59;;;-0.34;75.80
82148;BME280;71718;50.480;12.110;2024-01-06T08:47:01;96813.91;;;-0.29;75.83
82148;BME280;71718;50.480;12.110;2024-01-06T08:49:28;96807.38;;;-0.23;75.41
82148;BME280;71718;50.480;12.110;2024-01-06T08:51:54;96807.72;;;-0.18;75.34
82148;BME280;71718;50.480;12.110;2024-01-06T08:54:21;96800.03;;;-0.10;75.10
82148;BME280;71718;50.480;12.110;2024-01-06T08:56:47;96810.88;;;0.00;75.59
82148;BME280;71718;50.480;12.110;2024-01-06T08:59:14;96803.53;;;0.05;74.91
82148;BME280;71718;50.480;12.110;2024-01-06T09:01:40;96800.03;;;0.14;74.26
82148;BME280;71718;50.480;12.110;2024-01-06T09:04:07;96808.78;;;0.20;74.60
82148;BME280;71718;50.480;12.110;2024-01-06T09:06:33;96808.16;;;0.26;73.92
82148;BME280;71718;50.480;12.110;2024-01-06T09:09:00;96808.94;;;0.34;73.46
82148;BME280;71718;50.480;12.110;2024-01-06T09:11:26;96804.28;;;0.46;73.22
82148;BME280;71718;50.480;12.110;2024-01-06T09:13:53;96815.59;;;0.60;72.33
82148;BME280;71718;50.480;12.110;2024-01-06T09:16:19;96810.94;;;0.71;72.04
82148;BME280;71718;50.480;12.110;2024-01-06T09:18:46;96815.84;;;0.81;71.73
82148;BME280;71718;50.480;12.110;2024-01-06T09:21:12;96814.69;;;0.92;71.65
82148;BME280;71718;50.480;12.110;2024-01-06T09:23:39;96820.91;;;0.97;71.10
82148;BME280;71718;50.480;12.110;2024-01-06T09:26:05;96818.03;;;1.00;70.45
82148;BME280;71718;50.480;12.110;2024-01-06T09:28:32;96830.97;;;0.99;70.16
82148;BME280;71718;50.480;12.110;2024-01-06T09:30:59;96835.13;;;1.00;70.73
82148;BME280;71718;50.480;12.110;2024-01-06T09:33:26;96837.06;;;0.98;70.69
82148;BME280;71718;50.480;12.110;2024-01-06T09:35:52;96840.75;;;0.95;70.73
82148;BME280;71718;50.480;12.110;2024-01-06T09:38:19;96844.09;;;0.96;70.57
82148;BME280;71718;50.480;12.110;2024-01-06T09:40:45;96848.22;;;0.97;70.59
82148;BME280;71718;50.480;12.110;2024-01-06T09:43:12;96853.19;;;0.98;70.39
82148;BME280;71718;50.480;12.110;2024-01-06T09:45:38;96844.56;;;0.99;70.31
82148;BME280;71718;50.480;12.110;2024-01-06T09:48:13;96849.81;;;1.06;71.06
82148;BME280;71718;50.480;12.110;2024-01-06T09:50:43;96847.06;;;1.15;73.04
82148;BME280;71718;50.480;12.110;2024-01-06T09:53:13;96851.97;;;1.25;70.70
82148;BME280;71718;50.480;12.110;2024-01-06T09:55:39;96854.84;;;1.30;69.76
82148;BME280;71718;50.480;12.110;2024-01-06T09:58:08;96849.22;;;1.35;69.23
82148;BME280;71718;50.480;12.110;2024-01-06T10:00:35;96849.16;;;1.43;69.51
82148;BME280;71718;50.480;12.110;2024-01-06T10:03:01;96850.38;;;1.55;73.70
82148;BME280;71718;50.480;12.110;2024-01-06T10:05:27;96843.94;;;1.67;75.45
82148;BME280;71718;50.480;12.110;2024-01-06T10:07:54;96849.63;;;1.77;75.13
82148;BME280;71718;50.480;12.110;2024-01-06T10:10:22;96851.59;;;1.90;74.87
82148;BME280;71718;50.480;12.110;2024-01-06T10:12:52;96853.63;;;2.02;74.80
82148;BME280;71718;50.480;12.110;2024-01-06T10:15:19;96842.34;;;2.12;73.54
82148;BME280;71718;50.480;12.110;2024-01-06T10:17:46;96843.69;;;2.22;71.69
82148;BME280;71718;50.480;12.110;2024-01-06T10:20:13;96840.28;;;2.30;72.19
82148;BME280;71718;50.480;12.110;2024-01-06T10:22:42;96839.41;;;2.37;74.07
82148;BME280;71718;50.480;12.110;2024-01-06T10:25:09;96840.03;;;2.39;73.65
82148;BME280;71718;50.480;12.110;2024-01-06T10:27:38;96832.78;;;2.43;68.54
82148;BME280;71718;50.480;12.110;2024-01-06T10:30:06;96832.25;;;2.47;68.39
82148;BME280;71718;50.480;12.110;2024-01-06T10:32:35;96835.72;;;2.55;72.95
82148;BME280;71718;50.480;12.110;2024-01-06T10:35:01;96837.75;;;2.59;73.78
82148;BME280;71718;50.480;12.110;2024-01-06T10:37:29;96842.09;;;2.59;73.68
82148;BME280;71718;50.480;12.110;2024-01-06T10:40:11;96848.66;;;2.61;72.04
82148;BME280;71718;50.480;12.110;2024-01-06T10:42:40;96841.91;;;2.60;66.93
82148;BME280;71718;50.480;12.110;2024-01-06T10:45:08;96835.09;;;2.52;66.76
82148;BME280;71718;50.480;12.110;2024-01-06T10:47:40;96831.13;;;2.50;68.58
82148;BME280;71718;50.480;12.110;2024-01-06T10:50:07;96833.69;;;2.50;72.55
82148;BME280;71718;50.480;12.110;2024-01-06T10:52:34;96836.84;;;2.52;74.87
82148;BME280;71718;50.480;12.110;2024-01-06T10:55:01;96845.81;;;2.56;74.44
82148;BME280;71718;50.480;12.110;2024-01-06T10:57:29;96834.56;;;2.57;74.30
82148;BME280;71718;50.480;12.110;2024-01-06T10:59:57;96836.63;;;2.62;74.77
82148;BME280;71718;50.480;12.110;2024-01-06T11:02:24;96834.34;;;2.67;75.02
82148;BME280;71718;50.480;12.110;2024-01-06T11:04:51;96834.25;;;2.75;73.05
82148;BME280;71718;50.480;12.110;2024-01-06T11:07:20;96838.66;;;2.81;72.95
82148;BME280;71718;50.480;12.110;2024-01-06T11:09:57;96840.53;;;2.87;72.88
82148;BME280;71718;50.480;12.110;2024-01-06T11:12:24;96837.25;;;2.93;73.83
82148;BME280;71718;50.480;12.110;2024-01-06T11:14:52;96836.63;;;3.06;73.77
82148;BME280;71718;50.480;12.110;2024-01-06T11:17:54;96842.28;;;3.16;74.53
82148;BME280;71718;50.480;12.110;2024-01-06T11:20:22;96843.59;;;3.26;74.61
82148;BME280;71718;50.480;12.110;2024-01-06T11:22:50;96841.72;;;3.35;74.95
82148;BME280;71718;50.480;12.110;2024-01-06T11:25:21;96841.00;;;3.41;74.26
82148;BME280;71718;50.480;12.110;2024-01-06T11:27:49;96835.41;;;3.52;74.18
82148;BME280;71718;50.480;12.110;2024-01-06T11:30:26;96833.16;;;3.64;73.55
82148;BME280;71718;50.480;12.110;2024-01-06T11:32:55;96840.53;;;3.52;72.45
82148;BME280;71718;50.480;12.110;2024-01-06T11:35:22;96841.50;;;3.51;73.17
82148;BME280;71718;50.480;12.110;2024-01-06T11:42:49;96830.78;;;3.62;73.57
82148;BME280;71718;50.480;12.110;2024-01-06T11:45:24;96827.69;;;3.67;73.83
82148;BME280;71718;50.480;12.110;2024-01-06T11:47:55;96832.28;;;3.71;73.25
82148;BME280;71718;50.480;12.110;2024-01-06T11:50:22;96827.78;;;3.73;73.91
82148;BME280;71718;50.480;12.110;2024-01-06T11:52:48;96834.69;;;3.73;73.62
82148;BME280;71718;50.480;12.110;2024-01-06T11:55:17;96830.59;;;3.78;73.76
82148;BME280;71718;50.480;12.110;2024-01-06T11:57:44;96833.53;;;3.75;73.11
82148;BME280;71718;50.480;12.110;2024-01-06T12:00:11;96845.19;;;3.78;72.97
82148;BME280;71718;50.480;12.110;2024-01-06T12:02:37;96833.16;;;3.78;69.01
82148;BME280;71718;50.480;12.110;2024-01-06T12:05:04;96833.88;;;3.72;69.11
82148;BME280;71718;50.480;12.110;2024-01-06T12:07:30;96832.47;;;3.70;72.17
82148;BME280;71718;50.480;12.110;2024-01-06T12:10:02;96832.66;;;3.68;73.07
82148;BME280;71718;50.480;12.110;2024-01-06T12:12:30;96837.13;;;3.66;73.04
82148;BME280;71718;50.480;12.110;2024-01-06T12:14:56;96835.75;;;3.64;72.02
82148;BME280;71718;50.480;12.110;2024-01-06T12:17:29;96843.28;;;3.65;73.14
82148;BME280;71718;50.480;12.110;2024-01-06T12:19:55;96839.91;;;3.65;73.71
82148;BME280;71718;50.480;12.110;2024-01-06T12:22:22;96842.47;;;3.65;72.98
82148;BME280;71718;50.480;12.110;2024-01-06T12:24:49;96847.88;;;3.70;73.39
82148;BME280;71718;50.480;12.110;2024-01-06T12:27:16;96852.03;;;3.71;73.78
82148;BME280;71718;50.480;12.110;2024-01-06T12:29:43;96844.16;;;3.72;73.25
82148;BME280;71718;50.480;12.110;2024-01-06T12:32:10;96843.59;;;3.77;72.42
82148;BME280;71718;50.480;12.110;2024-01-06T12:34:37;96844.56;;;3.76;68.33
82148;BME280;71718;50.480;12.110;2024-01-06T12:37:03;96837.88;;;3.75;67.71
82148;BME280;71718;50.480;12.110;2024-01-06T12:39:30;96839.00;;;3.72;71.47
82148;BME280;71718;50.480;12.110;2024-01-06T12:41:57;96842.00;;;3.76;72.54
82148;BME280;71718;50.480;12.110;2024-01-06T12:44:24;96846.00;;;3.78;73.77
82148;BME280;71718;50.480;12.110;2024-01-06T12:46:50;96837.13;;;3.81;73.57
82148;BME280;71718;50.480;12.110;2024-01-06T12:49:16;96837.00;;;3.89;73.48
82148;BME280;71718;50.480;12.110;2024-01-06T12:51:43;96839.03;;;3.94;73.90
82148;BME280;71718;50.480;12.110;2024-01-06T12:54:09;96836.88;;;3.97;73.13
82148;BME280;71718;50.480;12.110;2024-01-06T12:56:36;96840.44;;;3.96;73.15
82148;BME280;71718;50.480;12.110;2024-01-06T12:59:02;96840.06;;;3.99;72.07